Terminal Aerodrome Forecast
Issued by NWS

Home | Current Version | Previous Version | Text Only | Print | Product List | Glossary On
Versions: 1 2 3 4 5 6 7 8 9 10 11 12 13 14 15 16 17 18 19 20 21 22 23 24 25 26
952
FTUS45 KBOI 230034 AAA
TAFTWF
TAF AMD
KTWF 230034Z 2301/2324 28012KT P6SM FEW110
      TEMPO 2301/2302 -TSRA BKN070CB
     FM230200 23012G20KT P6SM OVC110
     FM230800 23015G25KT P6SM SKC=

USA.gov is the U.S. government's official web portal to all federal, state and local government web resources and services.